createdAt,value
2018-02-24T00:00:07.403Z,47.00
2018-02-24T00:02:34.885Z,46.90
2018-02-24T00:05:02.404Z,46.70
2018-02-24T00:07:30.700Z,47.00
2018-02-24T00:09:59.040Z,46.90
2018-02-24T00:12:27.654Z,46.90
2018-02-24T00:14:55.944Z,46.90
2018-02-24T00:17:23.612Z,46.80
2018-02-24T00:19:51.206Z,46.80
2018-02-24T00:22:19.897Z,46.80
2018-02-24T00:24:47.383Z,46.80
2018-02-24T00:27:15.633Z,47.00
2018-02-24T00:29:43.153Z,46.90
2018-02-24T00:32:11.552Z,47.00
2018-02-24T00:34:39.027Z,47.20
2018-02-24T00:37:06.512Z,47.10
2018-02-24T00:39:33.996Z,47.20
2018-02-24T00:42:01.476Z,47.40
2018-02-24T00:44:28.989Z,47.30
2018-02-24T00:46:56.509Z,47.20
2018-02-24T00:49:24.042Z,47.10
2018-02-24T00:51:51.626Z,47.00
2018-02-24T00:54:19.128Z,46.80
2018-02-24T00:56:46.636Z,46.90
2018-02-24T00:59:14.174Z,46.80
2018-02-24T01:01:41.644Z,46.90
2018-02-24T01:04:09.143Z,46.90
2018-02-24T01:06:37.456Z,46.90
2018-02-24T01:09:04.932Z,46.90
2018-02-24T01:11:32.406Z,46.90
2018-02-24T01:14:00.362Z,47.00
2018-02-24T01:16:27.870Z,46.90
2018-02-24T01:18:55.392Z,46.90
2018-02-24T01:21:23.003Z,46.50
2018-02-24T01:23:50.782Z,46.30
2018-02-24T01:26:18.271Z,46.40
2018-02-24T01:28:45.762Z,46.30
2018-02-24T01:31:14.109Z,46.10
2018-02-24T01:33:41.624Z,46.00
2018-02-24T01:36:10.044Z,46.20
2018-02-24T01:38:37.509Z,46.20
2018-02-24T01:41:04.987Z,46.70
2018-02-24T01:43:32.669Z,46.30
2018-02-24T01:46:00.132Z,46.70
2018-02-24T01:48:27.669Z,46.60
2018-02-24T01:50:56.287Z,46.90
2018-02-24T01:53:23.788Z,46.80
2018-02-24T01:55:51.498Z,47.00
2018-02-24T01:58:19.744Z,47.60
2018-02-24T02:00:47.217Z,47.20
2018-02-24T02:03:14.705Z,47.60
2018-02-24T02:05:42.182Z,47.30
2018-02-24T02:08:10.054Z,47.40
2018-02-24T02:10:37.540Z,47.40
2018-02-24T02:13:05.340Z,47.10
2018-02-24T02:15:33.188Z,47.50
2018-02-24T02:18:00.675Z,47.60
2018-02-24T02:20:29.090Z,48.00
2018-02-24T02:22:56.656Z,47.90
2018-02-24T02:25:24.169Z,48.00
2018-02-24T02:27:51.734Z,48.20
2018-02-24T02:30:19.220Z,48.20
2018-02-24T02:32:46.763Z,48.10
2018-02-24T02:35:14.237Z,48.10
2018-02-24T02:37:41.721Z,48.00
2018-02-24T02:40:09.406Z,48.00
2018-02-24T02:42:36.875Z,48.00
2018-02-24T02:45:04.343Z,47.80
2018-02-24T02:47:31.893Z,47.80
2018-02-24T02:50:00.189Z,48.00
2018-02-24T02:52:27.712Z,48.00
2018-02-24T02:54:55.252Z,48.00
2018-02-24T02:57:22.754Z,48.10
2018-02-24T02:59:50.270Z,48.20
2018-02-24T03:02:18.008Z,48.00
2018-02-24T03:04:45.448Z,48.00
2018-02-24T03:07:13.747Z,48.20
2018-02-24T03:09:41.993Z,48.40
2018-02-24T03:12:09.469Z,48.30
2018-02-24T03:14:37.279Z,48.10
2018-02-24T03:17:06.290Z,47.80
2018-02-24T03:19:34.530Z,47.50
2018-02-24T03:22:02.016Z,47.50
2018-02-24T03:24:29.516Z,47.30
2018-02-24T03:26:57.822Z,47.40
2018-02-24T03:29:25.319Z,47.30
2018-02-24T03:31:52.874Z,47.50
2018-02-24T03:34:20.449Z,47.50
2018-02-24T03:36:48.292Z,47.60
2018-02-24T03:39:16.543Z,47.40
2018-02-24T03:41:44.031Z,47.30
2018-02-24T03:44:11.720Z,47.00
2018-02-24T03:46:39.976Z,47.00
2018-02-24T03:49:07.469Z,46.80
2018-02-24T03:51:34.957Z,47.10
2018-02-24T03:54:02.419Z,46.80
2018-02-24T03:56:30.660Z,47.50
2018-02-24T03:58:58.154Z,47.50
2018-02-24T04:01:25.684Z,47.50
2018-02-24T04:03:53.633Z,47.70
2018-02-24T04:06:21.185Z,47.80
2018-02-24T04:08:49.448Z,48.00
2018-02-24T04:11:16.944Z,47.90
2018-02-24T04:13:45.176Z,48.10
2018-02-24T04:16:13.415Z,48.10
2018-02-24T04:18:41.639Z,48.10
2018-02-24T04:21:09.124Z,48.00
2018-02-24T04:23:36.931Z,48.20
2018-02-24T04:26:04.414Z,48.00
2018-02-24T04:28:31.902Z,48.10
2018-02-24T04:31:00.149Z,48.00
2018-02-24T04:33:27.684Z,47.90
2018-02-24T04:35:56.254Z,48.10
2018-02-24T04:38:24.900Z,47.80
2018-02-24T04:40:52.469Z,47.80
2018-02-24T04:43:19.952Z,47.40
2018-02-24T04:45:47.432Z,47.20
2018-02-24T04:48:14.984Z,47.00
2018-02-24T04:50:42.466Z,46.30
2018-02-24T04:53:09.944Z,46.20
2018-02-24T04:55:37.445Z,45.80
2018-02-24T04:58:04.933Z,45.60
2018-02-24T05:00:32.611Z,45.80
2018-02-24T05:03:00.477Z,45.90
2018-02-24T05:05:28.013Z,46.20
2018-02-24T05:07:55.674Z,46.00
2018-02-24T05:10:23.208Z,46.10
2018-02-24T05:12:50.693Z,44.80
2018-02-24T05:15:18.171Z,44.10
2018-02-24T05:17:45.660Z,43.50
2018-02-24T05:20:13.130Z,43.60
2018-02-24T05:22:40.617Z,43.40
2018-02-24T05:25:08.864Z,43.80
2018-02-24T05:27:36.362Z,43.70
2018-02-24T05:30:04.624Z,44.70
2018-02-24T05:32:32.098Z,44.00
2018-02-24T05:34:59.632Z,44.20
2018-02-24T05:37:27.143Z,44.70
2018-02-24T05:39:54.711Z,44.10
2018-02-24T05:42:22.321Z,43.90
2018-02-24T05:44:49.821Z,44.10
2018-02-24T05:47:17.313Z,43.60
2018-02-24T05:49:44.804Z,43.70
2018-02-24T05:52:12.298Z,43.60
2018-02-24T05:54:39.779Z,43.40
2018-02-24T05:57:07.240Z,43.30
2018-02-24T05:59:35.254Z,43.10
2018-02-24T06:02:02.743Z,42.90
2018-02-24T06:04:30.946Z,43.00
2018-02-24T06:06:58.425Z,42.60
2018-02-24T06:09:25.956Z,42.70
2018-02-24T06:11:53.522Z,42.50
2018-02-24T06:14:21.016Z,42.10
2018-02-24T06:16:49.290Z,41.10
2018-02-24T06:19:16.795Z,41.10
2018-02-24T06:21:45.032Z,41.40
2018-02-24T06:24:12.508Z,41.40
2018-02-24T06:26:39.989Z,41.00
2018-02-24T06:29:07.813Z,41.90
2018-02-24T06:31:36.124Z,40.80
2018-02-24T06:34:03.626Z,40.70
2018-02-24T06:36:31.124Z,40.60
2018-02-24T06:38:58.798Z,41.00
2018-02-24T06:41:26.304Z,40.80
2018-02-24T06:43:53.828Z,41.40
2018-02-24T06:46:21.331Z,40.40
2018-02-24T06:48:48.888Z,40.00
2018-02-24T06:51:16.390Z,39.70
2018-02-24T06:53:43.858Z,39.50
2018-02-24T06:56:11.329Z,38.50
2018-02-24T06:58:39.015Z,37.90
2018-02-24T07:01:06.492Z,37.80
2018-02-24T07:03:33.984Z,37.40
2018-02-24T07:06:01.499Z,36.80
2018-02-24T07:08:29.065Z,36.90
2018-02-24T07:10:56.742Z,36.70
2018-02-24T07:16:25.303Z,36.90
2018-02-24T07:18:52.837Z,36.60
2018-02-24T07:21:23.401Z,36.00
2018-02-24T07:23:52.979Z,35.50
2018-02-24T07:26:23.024Z,34.00
2018-02-24T07:28:51.617Z,34.00
2018-02-24T07:31:22.998Z,33.30
2018-02-24T07:33:52.471Z,33.30
2018-02-24T07:36:22.844Z,32.40
2018-02-24T07:38:53.401Z,32.30
2018-02-24T07:41:22.726Z,32.20
2018-02-24T07:43:52.281Z,31.90
2018-02-24T07:46:21.604Z,31.50
2018-02-24T07:48:51.763Z,30.10
2018-02-24T07:51:22.292Z,30.60
2018-02-24T07:53:53.073Z,30.30
2018-02-24T07:56:34.890Z,30.20
2018-02-24T08:01:52.203Z,29.80
2018-02-24T08:04:24.295Z,28.60
2018-02-24T08:06:53.638Z,28.70
2018-02-24T08:09:24.094Z,28.20
2018-02-24T08:11:51.654Z,28.50
2018-02-24T08:14:22.690Z,28.90
2018-02-24T08:16:52.864Z,28.50
2018-02-24T08:19:21.410Z,28.40
2018-02-24T08:21:51.248Z,28.50
2018-02-24T08:24:22.064Z,28.40
2018-02-24T08:26:53.378Z,29.00
2018-02-24T08:29:23.969Z,29.50
2018-02-24T08:31:53.080Z,27.90
2018-02-24T08:34:22.916Z,27.80
2018-02-24T08:36:53.512Z,27.80
2018-02-24T08:39:24.345Z,28.20
2018-02-24T08:41:51.834Z,28.40
2018-02-24T08:44:23.827Z,28.60
2018-02-24T08:46:52.380Z,28.50
2018-02-24T08:49:21.708Z,28.00
2018-02-24T08:51:51.429Z,27.50
2018-02-24T08:54:20.853Z,28.10
2018-02-24T08:56:52.348Z,27.90
2018-02-24T08:59:22.539Z,27.80
2018-02-24T09:01:53.248Z,28.00
2018-02-24T09:04:24.157Z,28.40
2018-02-24T09:06:52.452Z,27.60
2018-02-24T09:09:20.834Z,27.50
2018-02-24T09:11:52.634Z,27.50
2018-02-24T09:14:23.340Z,27.40
2018-02-24T09:16:52.526Z,27.80
2018-02-24T09:19:22.342Z,27.00
2018-02-24T09:21:53.280Z,27.20
2018-02-24T09:24:24.109Z,27.50
2018-02-24T09:26:53.323Z,27.30
2018-02-24T09:29:24.426Z,27.20
2018-02-24T09:31:53.068Z,27.30
2018-02-24T09:34:24.172Z,27.30
2018-02-24T09:36:52.520Z,27.10
2018-02-24T09:39:28.194Z,27.70
2018-02-24T09:41:56.487Z,28.30
2018-02-24T09:44:24.084Z,28.20
2018-02-24T09:46:52.679Z,28.70
2018-02-24T09:49:23.676Z,29.30
2018-02-24T09:51:52.610Z,29.20
2018-02-24T09:54:23.789Z,29.60
2018-02-24T09:56:52.370Z,29.80
2018-02-24T09:59:24.158Z,30.00
2018-02-24T10:01:52.554Z,30.60
2018-02-24T10:04:22.389Z,31.30
2018-02-24T10:12:54.597Z,32.10
2018-02-24T10:15:23.183Z,32.10
2018-02-24T10:17:54.045Z,33.10
2018-02-24T10:20:23.240Z,33.80
2018-02-24T10:22:53.083Z,35.20
2018-02-24T10:25:24.165Z,35.20
2018-02-24T10:27:52.990Z,35.20
2018-02-24T10:30:23.207Z,36.20
2018-02-24T10:32:54.050Z,36.20
2018-02-24T10:35:22.238Z,36.90
2018-02-24T10:37:53.832Z,36.00
2018-02-24T10:40:22.991Z,36.00
2018-02-24T10:42:53.784Z,36.00
2018-02-24T10:45:22.855Z,36.60
2018-02-24T10:47:56.620Z,37.20
2018-02-24T10:50:26.825Z,38.40
2018-02-24T10:52:55.147Z,38.50
2018-02-24T10:55:22.713Z,38.50
2018-02-24T10:57:51.604Z,39.10
2018-02-24T11:00:21.744Z,39.50
2018-02-24T11:02:53.504Z,40.00
2018-02-24T11:05:22.574Z,40.00
2018-02-24T11:07:53.747Z,39.90
2018-02-24T11:10:22.994Z,40.00
2018-02-24T11:12:52.671Z,39.60
2018-02-24T11:15:23.970Z,39.80
2018-02-24T11:17:52.258Z,39.90
2018-02-24T11:20:23.506Z,40.20
2018-02-24T11:22:52.607Z,40.20
2018-02-24T11:25:22.351Z,41.00
2018-02-24T11:27:54.453Z,41.90
2018-02-24T11:30:22.746Z,41.80
2018-02-24T11:32:53.237Z,41.90
2018-02-24T11:35:23.364Z,40.00
2018-02-24T11:37:53.984Z,39.90
2018-02-24T11:40:22.206Z,39.30
2018-02-24T11:42:52.545Z,38.30
2018-02-24T11:45:23.481Z,38.40
2018-02-24T11:47:52.400Z,38.40
2018-02-24T11:50:23.635Z,38.30
2018-02-24T11:52:52.600Z,37.90
2018-02-24T11:55:23.451Z,37.90
2018-02-24T11:57:53.056Z,39.60
2018-02-24T12:00:23.905Z,39.60
2018-02-24T12:02:52.346Z,39.60
2018-02-24T12:05:21.859Z,40.60
2018-02-24T12:07:54.098Z,40.60
2018-02-24T12:10:22.508Z,40.60
2018-02-24T12:12:52.549Z,41.10
2018-02-24T12:15:23.964Z,42.20
2018-02-24T12:17:52.496Z,41.10
2018-02-24T12:20:22.099Z,39.70
2018-02-24T12:22:56.313Z,39.30
2018-02-24T12:25:23.889Z,39.10
2018-02-24T12:27:53.225Z,40.30
2018-02-24T12:30:22.995Z,41.10
2018-02-24T12:32:53.559Z,41.10
2018-02-24T12:35:23.487Z,40.70
2018-02-24T12:37:53.953Z,40.70
2018-02-24T12:40:22.344Z,40.50
2018-02-24T12:42:52.393Z,40.30
2018-02-24T12:45:23.368Z,40.60
2018-02-24T12:47:52.618Z,40.10
2018-02-24T12:50:22.553Z,40.10
2018-02-24T12:52:53.351Z,39.50
2018-02-24T12:55:22.422Z,40.10
2018-02-24T12:57:53.467Z,40.00
2018-02-24T13:00:20.947Z,40.40
2018-02-24T13:02:55.253Z,41.10
2018-02-24T13:05:22.748Z,41.60
2018-02-24T13:07:52.750Z,41.60
2018-02-24T13:10:24.672Z,41.80
2018-02-24T13:12:53.048Z,40.60
2018-02-24T13:15:21.060Z,40.60
2018-02-24T13:17:52.448Z,38.70
2018-02-24T13:20:23.386Z,38.60
2018-02-24T13:22:53.146Z,39.50
2018-02-24T13:25:23.988Z,39.40
2018-02-24T13:27:52.652Z,39.00
2018-02-24T13:30:23.526Z,38.60
2018-02-24T13:32:52.952Z,38.30
2018-02-24T13:35:22.565Z,39.40
2018-02-24T13:37:53.637Z,39.10
2018-02-24T13:40:22.483Z,39.00
2018-02-24T13:42:53.793Z,38.20
2018-02-24T13:45:22.548Z,38.10
2018-02-24T13:47:53.770Z,38.80
2018-02-24T13:50:22.794Z,38.70
2018-02-24T13:52:52.364Z,39.30
2018-02-24T13:55:23.178Z,39.30
2018-02-24T13:57:53.159Z,38.90
2018-02-24T14:00:24.080Z,38.80
2018-02-24T14:02:53.185Z,39.30
2018-02-24T14:05:22.808Z,38.50
2018-02-24T14:07:53.993Z,38.50
2018-02-24T14:10:22.472Z,37.20
2018-02-24T14:12:53.286Z,36.20
2018-02-24T14:15:24.136Z,36.30
2018-02-24T14:17:52.481Z,36.90
2018-02-24T14:20:22.186Z,37.70
2018-02-24T14:22:52.002Z,38.20
2018-02-24T14:25:23.339Z,38.10
2018-02-24T14:27:53.096Z,38.00
2018-02-24T14:30:22.429Z,37.80
2018-02-24T14:32:53.644Z,37.40
2018-02-24T14:35:24.103Z,38.00
2018-02-24T14:37:53.686Z,38.50
2018-02-24T14:40:23.369Z,38.00
2018-02-24T14:42:55.757Z,36.20
2018-02-24T14:45:23.333Z,36.60
2018-02-24T14:47:52.596Z,37.30
2018-02-24T14:50:22.417Z,36.90
2018-02-24T14:52:53.294Z,37.40
2018-02-24T14:55:24.150Z,38.30
2018-02-24T14:57:52.766Z,38.10
2018-02-24T15:00:20.345Z,38.20
2018-02-24T15:02:48.439Z,38.70
2018-02-24T15:05:21.753Z,39.00
2018-02-24T15:07:53.148Z,38.90
2018-02-24T15:10:22.931Z,38.90
2018-02-24T15:12:51.788Z,38.10
2018-02-24T15:15:22.166Z,38.10
2018-02-24T15:17:51.148Z,38.20
2018-02-24T15:20:20.576Z,39.50
2018-02-24T15:22:48.964Z,39.40
2018-02-24T15:25:16.501Z,37.90
2018-02-24T15:27:52.614Z,38.10
2018-02-24T15:30:23.803Z,37.70
2018-02-24T15:32:51.433Z,37.00
2018-02-24T15:35:22.899Z,36.60
2018-02-24T15:37:57.899Z,37.20
2018-02-24T15:40:26.370Z,36.30
2018-02-24T15:42:55.724Z,36.70
2018-02-24T15:45:23.408Z,37.00
2018-02-24T15:47:52.439Z,36.20
2018-02-24T15:50:22.613Z,34.90
2018-02-24T15:52:52.472Z,34.90
2018-02-24T15:55:22.574Z,35.30
2018-02-24T15:57:51.274Z,35.40
2018-02-24T16:00:22.767Z,34.40
2018-02-24T16:02:53.245Z,35.00
2018-02-24T16:05:22.415Z,34.60
2018-02-24T16:07:53.106Z,35.50
2018-02-24T16:10:22.045Z,35.50
2018-02-24T16:12:53.003Z,35.60
2018-02-24T16:15:23.367Z,35.90
2018-02-24T16:17:52.712Z,36.30
2018-02-24T16:20:22.522Z,36.90
2018-02-24T16:22:51.694Z,36.80
2018-02-24T16:25:23.119Z,37.10
2018-02-24T16:27:50.626Z,37.10
2018-02-24T16:30:23.478Z,36.90
2018-02-24T16:32:52.596Z,37.10
2018-02-24T16:35:23.227Z,36.90
2018-02-24T16:37:52.691Z,36.80
2018-02-24T16:40:24.006Z,37.20
2018-02-24T16:42:51.612Z,37.30
2018-02-24T16:45:26.956Z,36.70
2018-02-24T16:47:55.323Z,37.20
2018-02-24T16:50:23.948Z,39.10
2018-02-24T16:52:52.707Z,39.10
2018-02-24T16:55:23.426Z,36.90
2018-02-24T16:57:54.513Z,36.60
2018-02-24T17:00:23.358Z,36.30
2018-02-24T17:02:52.572Z,36.60
2018-02-24T17:05:23.570Z,36.80
2018-02-24T17:07:54.420Z,36.90
2018-02-24T17:10:23.681Z,38.00
2018-02-24T17:12:52.748Z,37.90
2018-02-24T17:15:23.844Z,38.00
2018-02-24T17:17:52.688Z,37.70
2018-02-24T17:20:24.386Z,37.30
2018-02-24T17:22:53.177Z,37.20
2018-02-24T17:25:22.668Z,36.60
2018-02-24T17:30:24.725Z,36.40
2018-02-24T17:32:53.198Z,36.10
2018-02-24T17:35:25.393Z,36.30
2018-02-24T17:37:53.018Z,36.30
2018-02-24T17:40:24.068Z,35.90
2018-02-24T17:42:53.056Z,35.90
2018-02-24T17:45:23.867Z,35.50
2018-02-24T17:47:53.116Z,35.30
2018-02-24T17:50:23.318Z,35.50
2018-02-24T17:52:53.610Z,35.50
2018-02-24T17:55:23.458Z,34.20
2018-02-24T17:57:52.713Z,34.50
2018-02-24T18:00:23.786Z,34.40
2018-02-24T18:02:53.116Z,34.30
2018-02-24T18:05:22.954Z,34.30
2018-02-24T18:07:52.276Z,34.90
2018-02-24T18:10:22.956Z,35.00
2018-02-24T18:12:53.829Z,35.20
2018-02-24T18:15:22.932Z,35.30
2018-02-24T18:17:52.853Z,35.30
2018-02-24T18:20:23.786Z,35.30
2018-02-24T18:22:52.476Z,35.30
2018-02-24T18:25:23.786Z,35.50
2018-02-24T18:27:53.339Z,35.70
2018-02-24T18:30:24.366Z,35.60
2018-02-24T18:32:54.660Z,35.80
2018-02-24T18:35:22.789Z,35.80
2018-02-24T18:37:54.010Z,36.50
2018-02-24T18:40:24.428Z,36.50
2018-02-24T18:42:52.444Z,36.80
2018-02-24T18:45:23.798Z,37.00
2018-02-24T18:47:53.443Z,37.40
2018-02-24T18:50:21.717Z,37.60
2018-02-24T18:52:53.104Z,37.80
2018-02-24T18:55:24.761Z,38.00
2018-02-24T18:57:54.320Z,38.50
2018-02-24T19:00:22.559Z,38.40
2018-02-24T19:02:55.300Z,38.10
2018-02-24T19:05:24.584Z,38.40
2018-02-24T19:10:52.826Z,38.70
2018-02-24T19:13:24.832Z,38.30
2018-02-24T19:15:53.244Z,38.40
2018-02-24T19:18:24.502Z,38.30
2018-02-24T19:20:52.802Z,38.50
2018-02-24T19:23:25.212Z,38.50
2018-02-24T19:25:52.771Z,38.20
2018-02-24T19:28:24.431Z,38.70
2018-02-24T19:30:52.707Z,38.70
2018-02-24T19:33:24.370Z,38.50
2018-02-24T19:35:52.751Z,38.50
2018-02-24T19:38:23.888Z,38.50
2018-02-24T19:40:53.248Z,39.30
2018-02-24T19:43:24.932Z,38.70
2018-02-24T19:45:52.635Z,38.90
2018-02-24T19:48:23.396Z,39.30
2018-02-24T19:50:52.545Z,39.40
2018-02-24T19:53:23.826Z,39.30
2018-02-24T19:55:53.396Z,39.30
2018-02-24T19:58:23.458Z,39.20
2018-02-24T20:00:52.711Z,39.10
2018-02-24T20:03:22.639Z,39.40
2018-02-24T20:05:53.501Z,39.40
2018-02-24T20:08:23.460Z,39.50
2018-02-24T20:10:53.148Z,39.50
2018-02-24T20:13:20.968Z,40.30
2018-02-24T20:15:48.654Z,40.20
2018-02-24T20:18:17.065Z,39.90
2018-02-24T20:20:52.213Z,40.00
2018-02-24T20:23:22.966Z,40.00
2018-02-24T20:25:53.444Z,40.00
2018-02-24T20:28:22.492Z,40.30
2018-02-24T20:30:53.539Z,40.80
2018-02-24T20:33:24.731Z,40.40
2018-02-24T20:35:53.069Z,40.70
2018-02-24T20:38:21.736Z,40.70
2018-02-24T20:40:52.828Z,40.70
2018-02-24T20:43:23.742Z,40.90
2018-02-24T20:45:53.409Z,40.90
2018-02-24T20:48:22.049Z,41.00
2018-02-24T20:50:51.439Z,40.80
2018-02-24T20:53:38.792Z,40.80
2018-02-24T20:56:06.701Z,41.00
2018-02-24T20:58:34.154Z,41.30
2018-02-24T21:01:01.710Z,41.40
2018-02-24T21:03:30.089Z,41.30
2018-02-24T21:05:58.628Z,41.20
2018-02-24T21:08:27.103Z,41.30
2018-02-24T21:10:54.600Z,40.90
2018-02-24T21:16:01.018Z,40.80
2018-02-24T21:18:29.565Z,40.70
2018-02-24T21:20:57.069Z,40.30
2018-02-24T21:23:24.984Z,40.50
2018-02-24T21:25:55.089Z,40.80
2018-02-24T21:28:22.605Z,40.70
2018-02-24T21:30:50.137Z,40.60
2018-02-24T21:33:18.610Z,40.60
2018-02-24T21:35:46.366Z,40.60
2018-02-24T21:38:27.782Z,40.80
2018-02-24T21:40:56.097Z,41.90
2018-02-24T21:43:23.643Z,41.30
2018-02-24T21:45:51.239Z,41.50
2018-02-24T21:48:19.532Z,41.10
2018-02-24T21:50:55.165Z,41.30
2018-02-24T21:53:22.783Z,41.30
2018-02-24T21:55:50.328Z,41.10
2018-02-24T21:58:18.650Z,41.70
2018-02-24T22:00:50.677Z,41.70
2018-02-24T22:03:18.380Z,41.60
2018-02-24T22:05:46.933Z,41.00
2018-02-24T22:08:14.620Z,41.20
2018-02-24T22:10:43.995Z,41.30
2018-02-24T22:13:11.572Z,41.30
2018-02-24T22:15:39.199Z,41.00
2018-02-24T22:18:07.694Z,41.60
2018-02-24T22:20:35.249Z,41.60
2018-02-24T22:23:03.846Z,41.50
2018-02-24T22:25:31.891Z,41.80
2018-02-24T22:27:59.604Z,42.00
2018-02-24T22:30:28.109Z,41.50
2018-02-24T22:32:56.564Z,41.50
2018-02-24T22:35:24.255Z,41.50
2018-02-24T22:37:55.448Z,41.40
2018-02-24T22:40:35.611Z,41.70
2018-02-24T22:43:09.200Z,41.70
2018-02-24T22:45:37.271Z,41.90
2018-02-24T22:48:10.922Z,41.30
2018-02-24T22:50:38.608Z,41.80
2018-02-24T22:53:06.531Z,41.50
2018-02-24T22:55:34.122Z,41.70
2018-02-24T22:58:04.620Z,41.70
2018-02-24T23:00:32.780Z,42.40
2018-02-24T23:03:00.635Z,42.30
2018-02-24T23:05:28.291Z,42.20
2018-02-24T23:07:57.434Z,42.30
2018-02-24T23:10:25.780Z,42.50
2018-02-24T23:12:53.496Z,42.40
2018-02-24T23:15:21.820Z,41.80
2018-02-24T23:17:49.345Z,41.80
2018-02-24T23:20:18.685Z,42.40
2018-02-24T23:22:46.550Z,42.40
2018-02-24T23:25:14.268Z,42.70
2018-02-24T23:27:41.753Z,43.20
2018-02-24T23:30:10.004Z,42.60
2018-02-24T23:32:38.536Z,42.90
2018-02-24T23:35:06.580Z,42.90
2018-02-24T23:37:37.058Z,42.80
2018-02-24T23:42:50.984Z,43.00
2018-02-24T23:45:19.433Z,42.90
2018-02-24T23:47:47.400Z,42.40
2018-02-24T23:50:15.240Z,42.80
2018-02-24T23:52:42.865Z,42.90
2018-02-24T23:55:22.113Z,42.80
2018-02-24T23:57:55.078Z,43.00
